K&a Sp — 3FVZ3 — position and weather

sailwx.info

Track history (hours):
 
Tides and Currents Weather Stations Pressure Air Temp Water Temp Dewpoint Dewpoint Depression Visibility Wind Speed Wind Dir Waves Ship Positions

K&a Sp

Last reported at 2016-Apr-11 21:19 UTC. Time now 2016-May-05 23:51 UTC.
Position N 34°42' E 139°46'.
Warning: this ship's position is 24 days out of date.

Length 177 m; draft 8.5 m.

Type: Cargo ship. MMSI: 354085000.

Date/timePositionNaut miles runAvg speedWind from/ knotsBaromVisibWave heightAir tempDewpointWater temp
2016-Apr-11 21:19N 34°42' E 139°46'1012.9
2016-Apr-11 20:33N 34°45' E 139°57'1313.1
2016-Apr-11 19:32N 34°51' E 140°11'2711.8
2016-Apr-11 17:14N 35°08' E 140°38'52 8.9
2016-Apr-11 11:24N 35°59' E 140°45'6 5.7
2016-Apr-11 10:24N 35°55' E 140°40'0 0.0
2016-Apr-11 03:17N 35°55' E 140°40'0 0.0
2016-Apr-11 02:33N 35°55' E 140°40'0 0.0
2016-Apr-11 01:34N 35°55' E 140°40'0 0.0
2016-Apr-11 00:25N 35°55' E 140°40'0 0.0
2016-Apr-10 23:33N 35°55' E 140°40'2 1.5
2016-Apr-10 22:32N 35°56' E 140°42'6 2.7
2016-Apr-10 20:28N 35°60' E 140°46'0 0.0
2016-Apr-10 17:31N 35°60' E 140°46'0 0.0
2016-Apr-10 08:31N 36°00' E 140°46'0 0.2
2016-Apr-10 07:28N 36°00' E 140°46'0 0.0
2016-Apr-10 06:31N 36°00' E 140°46'0 0.0
2016-Apr-10 04:25N 36°00' E 140°46'0 0.0
2016-Apr-10 02:25N 36°00' E 140°46'0 0.0
2016-Apr-10 01:13N 36°00' E 140°46'0 0.0
2016-Apr-10 00:25N 36°00' E 140°46'0 0.0
2016-Apr-09 23:19N 36°00' E 140°46'0 0.0
2016-Apr-09 22:28N 36°00' E 140°46'0 0.0
2016-Apr-09 21:31N 36°00' E 140°46'0 0.0
2016-Apr-09 20:31N 36°00' E 140°46'0 0.0
2016-Apr-09 19:28N 36°00' E 140°46'0 0.3
2016-Apr-09 18:33N 36°00' E 140°46'7 7.4
2016-Apr-09 17:33N 36°08' E 140°49'  
2016-Apr-07 01:33N 35°29' E 140°55'  
Track history (hours):
 
Tides and Currents Weather Stations Pressure Air Temp Water Temp Dewpoint Dewpoint Depression Visibility Wind Speed Wind Dir Waves Ship Positions

K&a Sp

Last reported at 2016-Apr-11 21:19 UTC. Time now 2016-May-05 23:51 UTC.
Position N 34°42' E 139°46'.
Warning: this ship's position is 24 days out of date.

Length 177 m; draft 8.5 m.

Type: Cargo ship. MMSI: 354085000.

Date/timePositionNaut miles runAvg speedWind from/ knotsBaromVisibWave heightAir tempDewpointWater temp
2016-Apr-11 21:19N 34°42' E 139°46'1012.9
2016-Apr-11 20:33N 34°45' E 139°57'1313.1
2016-Apr-11 19:32N 34°51' E 140°11'2711.8
2016-Apr-11 17:14N 35°08' E 140°38'52 8.9
2016-Apr-11 11:24N 35°59' E 140°45'6 5.7
2016-Apr-11 10:24N 35°55' E 140°40'0 0.0
2016-Apr-11 03:17N 35°55' E 140°40'0 0.0
2016-Apr-11 02:33N 35°55' E 140°40'0 0.0
2016-Apr-11 01:34N 35°55' E 140°40'0 0.0
2016-Apr-11 00:25N 35°55' E 140°40'0 0.0
2016-Apr-10 23:33N 35°55' E 140°40'2 1.5
2016-Apr-10 22:32N 35°56' E 140°42'6 2.7
2016-Apr-10 20:28N 35°60' E 140°46'0 0.0
2016-Apr-10 17:31N 35°60' E 140°46'0 0.0
2016-Apr-10 08:31N 36°00' E 140°46'0 0.2
2016-Apr-10 07:28N 36°00' E 140°46'0 0.0
2016-Apr-10 06:31N 36°00' E 140°46'0 0.0
2016-Apr-10 04:25N 36°00' E 140°46'0 0.0
2016-Apr-10 02:25N 36°00' E 140°46'0 0.0
2016-Apr-10 01:13N 36°00' E 140°46'0 0.0
2016-Apr-10 00:25N 36°00' E 140°46'0 0.0
2016-Apr-09 23:19N 36°00' E 140°46'0 0.0
2016-Apr-09 22:28N 36°00' E 140°46'0 0.0
2016-Apr-09 21:31N 36°00' E 140°46'0 0.0
2016-Apr-09 20:31N 36°00' E 140°46'0 0.0
2016-Apr-09 19:28N 36°00' E 140°46'0 0.3
2016-Apr-09 18:33N 36°00' E 140°46'7 7.4
2016-Apr-09 17:33N 36°08' E 140°49'  
2016-Apr-07 01:33N 35°29' E 140°55'  

Dump ship's entire track history